Time;durP1;ratioP1;P1;durP2;ratioP2;P2;SDS_P1;SDS_P2;PMS_P1;PMS_P2;Temp;Humidity;BMP_temperature;BMP_pressure;BME280_temperature;BME280_humidity;BME280_pressure;Samples;Min_cycle;Max_cycle;Signal;HPM_P1;HPM_P2
2023/04/02 00:01:39;;;;;;;;;5.00;5.00;;;;;;;;5015525;28;46151;-71
2023/04/02 00:04:10;;;;;;;;;8.25;5.00;;;;;;;;5014124;28;45471;-71
2023/04/02 00:06:43;;;;;;;;;4.50;3.50;;;;;;;;5012589;28;45244;-70
2023/04/02 00:09:11;;;;;;;;;5.00;5.00;;;;;;;;5019407;28;45547;-71
2023/04/02 00:11:39;;;;;;;;;2.75;2.75;;;;;;;;5024285;28;46162;-71
2023/04/02 00:14:11;;;;;;;;;4.75;4.75;;;;;;;;5026400;28;45631;-70
2023/04/02 00:16:36;;;;;;;;;6.00;5.00;;;;;;;;5016411;28;45537;-71
2023/04/02 00:19:05;;;;;;;;;6.75;4.00;;;;;;;;5013791;28;45409;-70
2023/04/02 00:21:33;;;;;;;;;3.00;3.00;;;;;;;;5014296;28;46121;-70
2023/04/02 00:23:59;;;;;;;;;5.00;4.75;;;;;;;;5014156;28;45759;-71
2023/04/02 00:26:32;;;;;;;;;4.50;4.50;;;;;;;;4996523;28;45636;-70
2023/04/02 00:29:01;;;;;;;;;2.50;2.50;;;;;;;;5012556;28;45594;-70
2023/04/02 00:31:26;;;;;;;;;4.25;4.25;;;;;;;;5014019;28;46942;-71
2023/04/02 00:33:52;;;;;;;;;5.75;4.00;;;;;;;;4996221;28;45297;-70
2023/04/02 00:36:18;;;;;;;;;3.50;3.50;;;;;;;;5014235;28;45332;-71
2023/04/02 00:38:45;;;;;;;;;3.50;3.50;;;;;;;;5014100;28;45608;-71
2023/04/02 00:41:13;;;;;;;;;8.50;4.25;;;;;;;;4999745;28;47182;-71
2023/04/02 00:43:43;;;;;;;;;4.00;4.00;;;;;;;;5017147;28;45370;-70
2023/04/02 00:46:16;;;;;;;;;4.50;4.50;;;;;;;;5017513;28;45479;-71
2023/04/02 00:48:57;;;;;;;;;8.75;5.00;;;;;;;;5017228;28;45454;-69
2023/04/02 00:51:26;;;;;;;;;3.50;3.50;;;;;;;;5016167;28;46481;-71
2023/04/02 00:53:52;;;;;;;;;5.00;5.00;;;;;;;;5016761;28;45544;-71
2023/04/02 00:56:24;;;;;;;;;7.00;4.75;;;;;;;;5017300;28;45341;-70
2023/04/02 00:58:51;;;;;;;;;5.00;4.50;;;;;;;;5017013;28;45481;-71
2023/04/02 01:01:17;;;;;;;;;5.25;4.75;;;;;;;;5017217;28;45628;-71
2023/04/02 01:03:52;;;;;;;;;4.50;3.75;;;;;;;;5017315;28;45472;-70
2023/04/02 01:06:18;;;;;;;;;2.75;2.75;;;;;;;;5017380;28;45465;-70
2023/04/02 01:08:43;;;;;;;;;4.25;4.25;;;;;;;;5013171;28;45333;-71
2023/04/02 01:11:27;;;;;;;;;3.00;2.75;;;;;;;;5013440;28;45588;-69
2023/04/02 01:13:58;;;;;;;;;2.75;2.75;;;;;;;;5016866;28;45351;-70
2023/04/02 01:16:23;;;;;;;;;1.00;0.50;;;;;;;;4999149;28;45277;-70
2023/04/02 01:19:12;;;;;;;;;2.25;2.25;;;;;;;;5016989;28;45534;-70
2023/04/02 01:21:41;;;;;;;;;3.00;2.00;;;;;;;;5016031;28;46591;-71
2023/04/02 01:24:07;;;;;;;;;2.75;2.75;;;;;;;;5016845;28;45359;-71
2023/04/02 01:26:38;;;;;;;;;2.00;2.00;;;;;;;;5016851;28;45364;-71
2023/04/02 01:29:19;;;;;;;;;4.00;2.25;;;;;;;;5017119;28;45332;-72
2023/04/02 01:31:45;;;;;;;;;3.00;3.00;;;;;;;;5016820;28;45476;-72
2023/04/02 01:34:12;;;;;;;;;4.00;2.25;;;;;;;;5016464;28;45374;-72
2023/04/02 01:36:53;;;;;;;;;3.00;1.75;;;;;;;;5016119;28;45579;-72
2023/04/02 01:39:36;;;;;;;;;2.00;2.00;;;;;;;;4998210;28;45575;-72
2023/04/02 01:42:11;;;;;;;;;1.00;1.00;;;;;;;;5015982;28;45505;-72
2023/04/02 01:44:40;;;;;;;;;3.00;1.25;;;;;;;;5016790;28;45314;-72
2023/04/02 01:47:09;;;;;;;;;2.00;2.00;;;;;;;;5016659;28;45443;-72
2023/04/02 01:49:34;;;;;;;;;3.75;2.00;;;;;;;;5016062;28;45452;-70
2023/04/02 01:52:00;;;;;;;;;2.00;2.00;;;;;;;;5015560;28;47112;-71
2023/04/02 01:54:27;;;;;;;;;3.25;2.25;;;;;;;;5016122;28;45394;-72
2023/04/02 01:56:53;;;;;;;;;1.00;1.00;;;;;;;;4998473;28;45424;-72
2023/04/02 01:59:21;;;;;;;;;1.50;1.50;;;;;;;;5016298;28;45324;-72
2023/04/02 02:02:06;;;;;;;;;3.00;1.75;;;;;;;;5015837;28;45725;-72
2023/04/02 02:04:32;;;;;;;;;1.25;1.25;;;;;;;;5015701;28;45328;-72
2023/04/02 02:06:59;;;;;;;;;1.00;1.00;;;;;;;;5016163;28;45405;-72
2023/04/02 02:09:26;;;;;;;;;1.00;1.00;;;;;;;;5014754;28;45426;-72
2023/04/02 02:11:52;;;;;;;;;2.00;2.00;;;;;;;;5014603;28;46312;-71
2023/04/02 02:14:18;;;;;;;;;2.50;2.50;;;;;;;;4997200;28;45711;-71
2023/04/02 02:16:45;;;;;;;;;4.75;3.00;;;;;;;;5015212;28;45358;-72
2023/04/02 02:19:16;;;;;;;;;1.50;1.50;;;;;;;;5015254;28;45320;-71
2023/04/02 02:21:43;;;;;;;;;1.00;1.00;;;;;;;;5014872;28;45799;-71
2023/04/02 02:24:17;;;;;;;;;1.00;1.00;;;;;;;;5014788;28;45338;-71
2023/04/02 02:26:43;;;;;;;;;1.75;1.75;;;;;;;;5014813;28;45421;-72
2023/04/02 02:29:11;;;;;;;;;1.00;1.00;;;;;;;;5015284;28;45449;-72
2023/04/02 02:31:40;;;;;;;;;1.25;1.25;;;;;;;;5015065;28;45467;-72
2023/04/02 02:34:11;;;;;;;;;1.00;0.00;;;;;;;;4997193;28;45452;-72
2023/04/02 02:36:49;;;;;;;;;1.25;0.50;;;;;;;;5015180;28;45495;-72
2023/04/02 02:39:17;;;;;;;;;0.75;0.75;;;;;;;;5014790;28;45841;-73
2023/04/02 02:41:50;;;;;;;;;1.00;1.00;;;;;;;;5015035;28;46437;-71
2023/04/02 02:44:21;;;;;;;;;2.00;1.00;;;;;;;;5015384;28;45395;-72
2023/04/02 02:46:51;;;;;;;;;2.00;1.00;;;;;;;;5014784;28;45536;-73
2023/04/02 02:49:20;;;;;;;;;1.00;1.00;;;;;;;;5014659;28;45348;-72
2023/04/02 02:51:48;;;;;;;;;0.75;0.75;;;;;;;;5014785;28;45487;-73
2023/04/02 02:54:17;;;;;;;;;0.00;0.00;;;;;;;;5014442;28;45418;-71
2023/04/02 02:56:46;;;;;;;;;0.00;0.00;;;;;;;;5014853;28;45372;-71
2023/04/02 02:59:13;;;;;;;;;2.00;2.00;;;;;;;;5015422;28;45652;-72
2023/04/02 03:01:39;;;;;;;;;0.00;0.00;;;;;;;;4996979;28;46775;-72
2023/04/02 03:04:05;;;;;;;;;0.25;0.25;;;;;;;;5014854;28;45376;-73
2023/04/02 03:06:30;;;;;;;;;0.25;0.25;;;;;;;;5015357;28;45619;-73
2023/04/02 03:09:03;;;;;;;;;0.75;0.75;;;;;;;;5014532;28;45372;-73
2023/04/02 03:11:31;;;;;;;;;0.00;0.00;;;;;;;;5014976;28;46270;-72
2023/04/02 03:14:02;;;;;;;;;1.25;1.00;;;;;;;;5014852;28;45470;-72
2023/04/02 03:16:32;;;;;;;;;0.00;0.00;;;;;;;;5015249;28;45410;-73
2023/04/02 03:19:00;;;;;;;;;0.00;0.00;;;;;;;;5015110;28;45293;-73
2023/04/02 03:21:30;;;;;;;;;1.00;1.00;;;;;;;;5014567;28;45347;-71
2023/04/02 03:24:19;;;;;;;;;0.25;0.00;;;;;;;;5014573;28;45396;-71
2023/04/02 03:26:47;;;;;;;;;1.25;1.25;;;;;;;;4953358;28;45455;-73
2023/04/02 03:29:17;;;;;;;;;0.75;0.75;;;;;;;;4953909;28;45495;-72
2023/04/02 03:31:53;;;;;;;;;0.00;0.00;;;;;;;;4953591;28;45531;-72
2023/04/02 03:34:18;;;;;;;;;2.75;1.25;;;;;;;;4953948;28;45458;-72
2023/04/02 03:36:55;;;;;;;;;2.00;2.00;;;;;;;;4953235;28;45403;-72
2023/04/02 03:39:36;;;;;;;;;2.25;2.25;;;;;;;;4937688;28;45526;-72
2023/04/02 03:42:05;;;;;;;;;0.75;0.75;;;;;;;;4953597;28;45414;-72
2023/04/02 03:44:33;;;;;;;;;1.75;1.75;;;;;;;;4954016;28;45424;-72
2023/04/02 03:47:19;;;;;;;;;3.75;3.25;;;;;;;;4953711;28;45409;-73
2023/04/02 03:49:47;;;;;;;;;4.00;3.00;;;;;;;;4952975;28;45433;-71
2023/04/02 03:52:16;;;;;;;;;6.00;4.75;;;;;;;;4953191;28;46378;-72
2023/04/02 03:54:42;;;;;;;;;4.75;4.00;;;;;;;;4936906;28;45522;-72
2023/04/02 03:57:17;;;;;;;;;5.00;4.00;;;;;;;;4953831;28;45518;-72
2023/04/02 03:59:53;;;;;;;;;8.25;5.50;;;;;;;;4953763;28;45454;-71
2023/04/02 04:02:31;;;;;;;;;10.25;7.50;;;;;;;;4952735;28;47660;-71
2023/04/02 04:04:57;;;;;;;;;7.00;7.00;;;;;;;;5014051;28;45436;-72
2023/04/02 04:07:36;;;;;;;;;10.00;5.50;;;;;;;;4996698;28;45826;-71
2023/04/02 04:10:03;;;;;;;;;6.00;6.00;;;;;;;;5014562;28;45280;-71
2023/04/02 04:12:31;;;;;;;;;6.25;6.25;;;;;;;;4995988;28;48173;-71
2023/04/02 04:15:29;;;;;;;;;6.25;6.25;;;;;;;;4997754;28;45781;-71
2023/04/02 04:18:04;;;;;;;;;3.50;3.50;;;;;;;;4917565;28;45366;-72
2023/04/02 04:20:29;;;;;;;;;10.00;8.50;;;;;;;;4917750;28;45489;-72
2023/04/02 04:23:07;;;;;;;;;8.00;8.00;;;;;;;;4917860;28;46321;-72
2023/04/02 04:25:32;;;;;;;;;7.75;7.75;;;;;;;;4918005;28;45346;-72
2023/04/02 04:28:17;;;;;;;;;6.50;6.50;;;;;;;;4918238;28;45375;-72
2023/04/02 04:30:49;;;;;;;;;10.00;8.75;;;;;;;;4917988;28;45338;-72
2023/04/02 04:33:23;;;;;;;;;8.75;7.75;;;;;;;;4917375;28;47348;-72
2023/04/02 04:35:58;;;;;;;;;10.00;7.75;;;;;;;;4917565;28;45264;-72
2023/04/02 04:38:32;;;;;;;;;9.00;8.00;;;;;;;;4917520;28;45403;-72
2023/04/02 04:41:17;;;;;;;;;11.00;9.75;;;;;;;;4917558;28;45377;-72
2023/04/02 04:43:47;;;;;;;;;8.50;8.50;;;;;;;;4933562;28;46654;-72
2023/04/02 04:46:15;;;;;;;;;9.75;9.00;;;;;;;;4917530;28;45486;-72
2023/04/02 04:48:56;;;;;;;;;11.25;10.00;;;;;;;;4917450;28;45381;-72
2023/04/02 04:51:28;;;;;;;;;12.25;11.00;;;;;;;;4916915;28;45637;-72
2023/04/02 04:53:54;;;;;;;;;14.75;13.50;;;;;;;;4982272;28;45777;-72
2023/04/02 04:56:22;;;;;;;;;10.50;8.75;;;;;;;;5016888;28;45494;-71
2023/04/02 04:58:47;;;;;;;;;14.75;12.00;;;;;;;;5017326;28;45448;-71
2023/04/02 05:01:20;;;;;;;;;10.00;10.00;;;;;;;;5017085;28;45360;-72
2023/04/02 05:04:04;;;;;;;;;13.50;12.25;;;;;;;;5016853;28;46175;-72
2023/04/02 05:06:41;;;;;;;;;15.50;13.50;;;;;;;;5017034;28;45328;-72
2023/04/02 05:09:12;;;;;;;;;12.00;12.00;;;;;;;;5017406;28;45450;-72
2023/04/02 05:11:41;;;;;;;;;13.25;11.50;;;;;;;;5017219;28;45353;-72
2023/04/02 05:14:11;;;;;;;;;12.75;12.00;;;;;;;;5017088;28;46674;-72
2023/04/02 05:16:57;;;;;;;;;12.25;11.25;;;;;;;;5017118;28;45404;-72
2023/04/02 05:19:27;;;;;;;;;10.25;10.25;;;;;;;;5015711;28;45494;-71
2023/04/02 05:21:56;;;;;;;;;9.25;8.75;;;;;;;;5015983;28;45498;-72
2023/04/02 05:24:27;;;;;;;;;10.25;9.00;;;;;;;;5016230;28;46102;-72
2023/04/02 05:26:56;;;;;;;;;10.25;8.75;;;;;;;;5015658;28;45445;-72
2023/04/02 05:29:26;;;;;;;;;9.25;8.75;;;;;;;;5016049;28;45379;-72
2023/04/02 05:32:00;;;;;;;;;9.00;9.00;;;;;;;;5016082;28;45533;-72
2023/04/02 05:34:31;;;;;;;;;11.00;8.25;;;;;;;;5015647;28;47202;-71
2023/04/02 05:36:57;;;;;;;;;10.75;7.00;;;;;;;;5016003;28;45412;-72
2023/04/02 05:39:23;;;;;;;;;13.25;11.00;;;;;;;;5016201;28;45521;-72
2023/04/02 05:41:56;;;;;;;;;12.00;11.00;;;;;;;;5016260;28;45428;-72
2023/04/02 05:44:32;;;;;;;;;11.75;11.75;;;;;;;;5015833;28;45348;-71
2023/04/02 05:47:00;;;;;;;;;7.25;7.25;;;;;;;;5015748;28;45368;-72
2023/04/02 05:49:30;;;;;;;;;11.50;8.50;;;;;;;;5015110;28;45659;-71
2023/04/02 05:51:58;;;;;;;;;10.25;9.25;;;;;;;;5015847;28;45344;-71
2023/04/02 05:54:31;;;;;;;;;9.50;9.00;;;;;;;;5015399;28;45447;-72
2023/04/02 05:57:01;;;;;;;;;12.00;9.25;;;;;;;;5015797;28;45280;-72
2023/04/02 05:59:36;;;;;;;;;10.25;9.75;;;;;;;;5016235;28;45667;-72
2023/04/02 06:02:06;;;;;;;;;10.00;10.00;;;;;;;;4998038;28;45341;-72
2023/04/02 06:04:31;;;;;;;;;10.50;9.50;;;;;;;;5015694;28;46183;-72
2023/04/02 06:07:03;;;;;;;;;7.50;6.25;;;;;;;;5015772;28;45357;-72
2023/04/02 06:09:38;;;;;;;;;9.00;7.75;;;;;;;;4997740;28;45452;-72
2023/04/02 06:12:03;;;;;;;;;9.25;9.25;;;;;;;;5015268;28;45489;-71
2023/04/02 06:14:28;;;;;;;;;9.00;6.00;;;;;;;;5014974;28;46658;-70
2023/04/02 06:16:54;;;;;;;;;6.50;6.50;;;;;;;;5015081;28;45571;-71
2023/04/02 06:19:28;;;;;;;;;11.00;9.75;;;;;;;;5015235;28;45578;-72
2023/04/02 06:21:58;;;;;;;;;7.00;7.00;;;;;;;;4997460;28;45547;-71
2023/04/02 06:24:24;;;;;;;;;10.75;8.00;;;;;;;;5014963;28;45584;-71
2023/04/02 06:26:56;;;;;;;;;8.25;7.75;;;;;;;;5015031;28;45317;-71
2023/04/02 06:29:32;;;;;;;;;7.50;7.25;;;;;;;;5015159;28;45471;-71
2023/04/02 06:31:59;;;;;;;;;8.75;8.25;;;;;;;;5014856;28;45340;-72
2023/04/02 06:34:26;;;;;;;;;5.00;5.00;;;;;;;;5015049;28;45636;-72
2023/04/02 06:36:56;;;;;;;;;6.75;6.75;;;;;;;;5014025;28;45408;-71
2023/04/02 06:39:23;;;;;;;;;3.25;3.00;;;;;;;;5014805;28;45484;-71
2023/04/02 06:42:06;;;;;;;;;8.00;6.25;;;;;;;;5014903;28;45299;-72
2023/04/02 06:44:33;;;;;;;;;9.00;9.00;;;;;;;;5014993;28;45670;-72
2023/04/02 06:47:01;;;;;;;;;6.00;6.00;;;;;;;;5014891;28;45448;-71
2023/04/02 06:49:37;;;;;;;;;10.00;8.50;;;;;;;;4997168;28;45521;-72
2023/04/02 06:52:05;;;;;;;;;8.00;6.00;;;;;;;;5014537;28;45540;-71
2023/04/02 06:54:30;;;;;;;;;11.25;9.00;;;;;;;;5014608;28;45501;-71
2023/04/02 06:56:55;;;;;;;;;6.00;6.00;;;;;;;;5015024;28;45395;-71
2023/04/02 06:59:21;;;;;;;;;8.00;8.00;;;;;;;;5015276;28;45360;-71
2023/04/02 07:01:46;;;;;;;;;10.25;6.00;;;;;;;;5014575;28;45393;-71
2023/04/02 07:04:11;;;;;;;;;7.75;7.00;;;;;;;;5014048;28;46573;-71
2023/04/02 07:06:36;;;;;;;;;6.50;6.50;;;;;;;;5014148;28;45363;-71
2023/04/02 07:09:02;;;;;;;;;10.00;8.00;;;;;;;;5014885;28;45351;-71
2023/04/02 07:11:28;;;;;;;;;8.50;7.00;;;;;;;;5014594;28;45501;-71
2023/04/02 07:13:53;;;;;;;;;7.00;7.00;;;;;;;;5014627;28;46003;-70
2023/04/02 07:16:21;;;;;;;;;6.25;6.00;;;;;;;;5014080;28;45717;-71
2023/04/02 07:18:47;;;;;;;;;8.25;8.00;;;;;;;;5014572;28;45487;-71
2023/04/02 07:21:12;;;;;;;;;8.75;6.50;;;;;;;;5014125;28;45420;-71
2023/04/02 07:23:37;;;;;;;;;9.00;8.75;;;;;;;;5014340;28;46603;-71
2023/04/02 07:26:03;;;;;;;;;11.00;8.75;;;;;;;;5014559;28;45591;-71
2023/04/02 07:28:29;;;;;;;;;8.00;6.75;;;;;;;;5014459;28;45763;-71
2023/04/02 07:30:55;;;;;;;;;6.00;6.00;;;;;;;;5014132;28;45461;-71
2023/04/02 07:33:21;;;;;;;;;6.75;6.75;;;;;;;;5014129;28;46325;-70
2023/04/02 07:35:47;;;;;;;;;10.25;9.00;;;;;;;;5014092;28;45842;-70
2023/04/02 07:38:12;;;;;;;;;8.75;7.00;;;;;;;;5014804;28;45455;-71
2023/04/02 07:40:38;;;;;;;;;10.00;10.00;;;;;;;;5015005;28;45303;-71
2023/04/02 07:43:04;;;;;;;;;11.00;7.75;;;;;;;;5014691;28;45333;-72
2023/04/02 07:45:30;;;;;;;;;12.75;7.75;;;;;;;;5014747;28;45403;-70
2023/04/02 07:47:55;;;;;;;;;8.50;8.50;;;;;;;;5014435;28;45301;-72
2023/04/02 07:50:21;;;;;;;;;9.50;8.75;;;;;;;;5017781;28;45486;-72
2023/04/02 07:52:46;;;;;;;;;11.00;8.25;;;;;;;;5017599;28;45277;-70
2023/04/02 07:55:13;;;;;;;;;8.25;8.00;;;;;;;;5017282;28;45481;-70
2023/04/02 07:57:40;;;;;;;;;8.00;8.00;;;;;;;;5010605;28;45511;-71
2023/04/02 08:00:06;;;;;;;;;10.00;9.75;;;;;;;;5017294;28;45359;-71
2023/04/02 08:02:31;;;;;;;;;9.25;8.25;;;;;;;;5012809;28;46175;-72
2023/04/02 08:04:57;;;;;;;;;10.00;9.50;;;;;;;;5011594;28;45492;-71
2023/04/02 08:07:22;;;;;;;;;9.00;9.00;;;;;;;;4996663;28;45415;-70
2023/04/02 08:09:47;;;;;;;;;11.00;11.00;;;;;;;;4999384;28;45385;-70
2023/04/02 08:12:12;;;;;;;;;13.50;12.75;;;;;;;;5015987;28;45560;-72
2023/04/02 08:14:38;;;;;;;;;11.25;11.25;;;;;;;;5016766;28;45363;-74
2023/04/02 08:17:03;;;;;;;;;10.25;10.25;;;;;;;;5017889;28;45372;-73
2023/04/02 08:19:28;;;;;;;;;14.50;14.00;;;;;;;;5017718;28;45423;-74
2023/04/02 08:21:54;;;;;;;;;19.50;17.00;;;;;;;;5017532;28;45515;-72
2023/04/02 08:24:19;;;;;;;;;15.75;15.25;;;;;;;;5017736;28;45399;-74
2023/04/02 08:26:45;;;;;;;;;14.50;14.50;;;;;;;;5017534;28;45492;-74
2023/04/02 08:29:10;;;;;;;;;18.25;17.25;;;;;;;;5000122;28;45293;-74
2023/04/02 08:31:36;;;;;;;;;21.25;14.25;;;;;;;;5017870;28;45431;-73
2023/04/02 08:34:02;;;;;;;;;17.75;17.75;;;;;;;;5017599;28;45397;-73
2023/04/02 08:36:34;;;;;;;;;15.50;12.50;;;;;;;;5017208;28;45395;-73
2023/04/02 08:38:59;;;;;;;;;15.00;13.75;;;;;;;;4999267;28;45453;-74
2023/04/02 08:41:26;;;;;;;;;14.75;11.00;;;;;;;;5016692;28;45307;-73
2023/04/02 08:44:00;;;;;;;;;9.25;9.25;;;;;;;;5016864;28;45346;-73
2023/04/02 08:46:29;;;;;;;;;11.50;11.25;;;;;;;;5016875;28;45501;-73
2023/04/02 08:48:57;;;;;;;;;10.25;9.25;;;;;;;;5016950;28;45542;-73
2023/04/02 08:51:24;;;;;;;;;10.00;10.00;;;;;;;;4998913;28;48719;-72
2023/04/02 08:53:52;;;;;;;;;10.50;8.00;;;;;;;;5016494;28;45405;-74
2023/04/02 08:56:19;;;;;;;;;12.00;11.00;;;;;;;;5016712;28;45341;-72
2023/04/02 08:59:02;;;;;;;;;10.25;10.25;;;;;;;;5016521;28;45530;-73
2023/04/02 09:01:30;;;;;;;;;11.75;10.75;;;;;;;;5015368;28;46174;-73
2023/04/02 09:03:57;;;;;;;;;10.00;8.50;;;;;;;;5016368;28;45395;-73
2023/04/02 09:06:22;;;;;;;;;13.75;10.50;;;;;;;;4999231;28;45310;-73
2023/04/02 09:08:49;;;;;;;;;11.50;11.50;;;;;;;;4999853;28;45465;-72
2023/04/02 09:11:30;;;;;;;;;13.00;12.00;;;;;;;;4997965;28;48577;-73
2023/04/02 09:13:56;;;;;;;;;19.50;15.50;;;;;;;;5017383;28;45398;-73
2023/04/02 09:16:32;;;;;;;;;16.50;10.75;;;;;;;;5016957;28;45363;-72
2023/04/02 09:18:59;;;;;;;;;14.75;11.25;;;;;;;;5017083;28;45472;-71
2023/04/02 09:21:33;;;;;;;;;11.25;10.00;;;;;;;;5016532;28;45347;-72
2023/04/02 09:23:59;;;;;;;;;11.25;11.00;;;;;;;;5016573;28;45476;-71
2023/04/02 09:26:28;;;;;;;;;14.50;12.00;;;;;;;;5016502;28;45380;-73
2023/04/02 09:28:59;;;;;;;;;13.50;10.75;;;;;;;;5016718;28;45352;-72
2023/04/02 09:31:29;;;;;;;;;12.75;11.50;;;;;;;;5016535;28;46359;-72
2023/04/02 09:33:55;;;;;;;;;14.75;13.50;;;;;;;;5016250;28;45353;-74
2023/04/02 09:36:34;;;;;;;;;12.50;10.50;;;;;;;;4998517;28;45397;-71
2023/04/02 09:39:19;;;;;;;;;11.75;11.75;;;;;;;;4998617;28;45350;-72
2023/04/02 09:41:45;;;;;;;;;14.50;12.25;;;;;;;;5016511;28;45359;-72
2023/04/02 09:44:10;;;;;;;;;11.00;11.00;;;;;;;;5016279;28;45375;-71
2023/04/02 09:46:36;;;;;;;;;11.75;10.25;;;;;;;;5015951;28;45461;-72
2023/04/02 09:49:01;;;;;;;;;15.75;12.00;;;;;;;;5016703;28;45388;-72
2023/04/02 09:51:28;;;;;;;;;7.25;6.50;;;;;;;;5016120;28;45607;-73
2023/04/02 09:54:02;;;;;;;;;14.25;14.25;;;;;;;;5016294;28;45492;-72
2023/04/02 09:56:29;;;;;;;;;14.50;10.75;;;;;;;;5016381;28;45410;-72
2023/04/02 09:59:01;;;;;;;;;11.25;8.75;;;;;;;;5016359;28;45410;-72
2023/04/02 10:01:37;;;;;;;;;10.00;10.00;;;;;;;;5016167;28;45411;-72
2023/04/02 10:04:03;;;;;;;;;11.75;6.00;;;;;;;;5016246;28;45508;-72
2023/04/02 10:06:29;;;;;;;;;10.75;9.50;;;;;;;;5016298;28;45407;-72
2023/04/02 10:08:55;;;;;;;;;13.50;13.50;;;;;;;;5015930;28;45441;-72
2023/04/02 10:11:29;;;;;;;;;13.50;11.50;;;;;;;;5015723;28;45586;-72
2023/04/02 10:13:59;;;;;;;;;11.25;11.25;;;;;;;;5016262;28;45329;-72
2023/04/02 10:16:25;;;;;;;;;13.00;12.00;;;;;;;;5016030;28;45375;-71
2023/04/02 10:18:53;;;;;;;;;14.50;14.00;;;;;;;;5015839;28;45608;-72
2023/04/02 10:21:23;;;;;;;;;12.00;11.75;;;;;;;;5015898;28;46369;-72
2023/04/02 10:23:48;;;;;;;;;11.25;11.25;;;;;;;;5015507;28;45427;-73
2023/04/02 10:26:32;;;;;;;;;12.50;10.50;;;;;;;;5015846;28;45407;-73
2023/04/02 10:29:01;;;;;;;;;12.75;10.00;;;;;;;;5016285;28;45403;-73
2023/04/02 10:31:32;;;;;;;;;12.25;11.75;;;;;;;;4997689;28;48225;-73
2023/04/02 10:34:02;;;;;;;;;12.75;11.25;;;;;;;;5015343;28;45494;-73
2023/04/02 10:36:48;;;;;;;;;15.50;14.00;;;;;;;;5015902;28;45450;-73
2023/04/02 10:39:28;;;;;;;;;18.75;15.75;;;;;;;;4997227;28;45420;-73
2023/04/02 10:42:09;;;;;;;;;15.00;13.00;;;;;;;;5015386;28;47372;-73
2023/04/02 10:44:43;;;;;;;;;19.00;18.50;;;;;;;;5015754;28;45384;-73
2023/04/02 10:47:11;;;;;;;;;16.50;16.50;;;;;;;;4997728;28;45447;-72
2023/04/02 10:50:15;;;;;;;;;21.25;17.75;;;;;;;;5015196;28;45387;-73
2023/04/02 10:52:47;;;;;;;;;14.00;12.50;;;;;;;;4953959;28;46572;-73
2023/04/02 10:55:15;;;;;;;;;23.25;17.75;;;;;;;;4937902;28;45442;-73
2023/04/02 10:57:42;;;;;;;;;20.75;16.50;;;;;;;;4954147;28;45373;-72
2023/04/02 11:00:08;;;;;;;;;19.00;16.50;;;;;;;;4938156;28;45380;-72
2023/04/02 11:02:52;;;;;;;;;16.25;13.50;;;;;;;;4953860;28;46282;-72
2023/04/02 11:05:22;;;;;;;;;10.75;9.50;;;;;;;;4954152;28;45450;-71
2023/04/02 11:07:52;;;;;;;;;14.75;14.25;;;;;;;;4954190;28;45465;-72
2023/04/02 11:10:19;;;;;;;;;15.50;13.00;;;;;;;;4937933;28;45490;-71
2023/04/02 11:12:53;;;;;;;;;19.25;13.00;;;;;;;;4953932;28;46169;-71
2023/04/02 11:15:19;;;;;;;;;15.00;14.00;;;;;;;;4953881;28;45488;-71
2023/04/02 11:17:45;;;;;;;;;17.50;14.75;;;;;;;;4938102;28;45507;-71
2023/04/02 11:20:29;;;;;;;;;18.25;15.00;;;;;;;;4954196;28;45969;-71
2023/04/02 11:23:16;;;;;;;;;16.25;13.50;;;;;;;;4969835;28;46368;-71
2023/04/02 11:25:41;;;;;;;;;18.50;16.75;;;;;;;;5015257;28;45504;-71
2023/04/02 11:28:19;;;;;;;;;12.25;12.25;;;;;;;;5015326;28;45412;-72
2023/04/02 11:30:47;;;;;;;;;14.00;13.00;;;;;;;;5015242;28;45471;-72
2023/04/02 11:33:32;;;;;;;;;13.00;12.00;;;;;;;;4997074;28;46583;-72
2023/04/02 11:35:57;;;;;;;;;14.50;12.25;;;;;;;;5014606;28;45467;-72
2023/04/02 11:38:22;;;;;;;;;13.25;13.25;;;;;;;;4997319;28;45269;-71
2023/04/02 11:40:49;;;;;;;;;16.00;14.50;;;;;;;;4997134;28;45460;-71
2023/04/02 11:43:29;;;;;;;;;15.00;13.00;;;;;;;;5014913;28;46531;-71
2023/04/02 11:45:56;;;;;;;;;13.00;13.00;;;;;;;;5014628;28;45395;-72
2023/04/02 11:48:21;;;;;;;;;16.25;16.25;;;;;;;;5014917;28;45363;-71
2023/04/02 11:50:46;;;;;;;;;19.75;19.00;;;;;;;;4996561;28;45515;-71
2023/04/02 11:53:14;;;;;;;;;17.75;17.75;;;;;;;;5014968;28;46557;-71
2023/04/02 11:55:41;;;;;;;;;20.00;17.50;;;;;;;;4996805;28;45874;-71
2023/04/02 11:58:25;;;;;;;;;18.50;14.75;;;;;;;;4997009;28;45318;-72
2023/04/02 12:01:10;;;;;;;;;13.00;12.25;;;;;;;;5014476;28;45587;-72
2023/04/02 12:03:54;;;;;;;;;19.25;18.00;;;;;;;;5014399;28;45548;-72
2023/04/02 12:06:38;;;;;;;;;13.75;13.75;;;;;;;;5014273;28;45411;-72
2023/04/02 12:09:22;;;;;;;;;13.50;12.50;;;;;;;;5014626;28;45388;-72
2023/04/02 12:11:48;;;;;;;;;11.75;11.75;;;;;;;;5014363;28;45454;-72
2023/04/02 12:14:33;;;;;;;;;14.50;13.75;;;;;;;;5014449;28;45902;-72
2023/04/02 12:16:59;;;;;;;;;16.00;14.00;;;;;;;;5014981;28;45344;-71
2023/04/02 12:19:25;;;;;;;;;10.00;8.50;;;;;;;;5014507;28;45415;-72
2023/04/02 12:21:51;;;;;;;;;22.25;19.00;;;;;;;;5014742;28;45447;-72
2023/04/02 12:24:20;;;;;;;;;30.75;29.50;;;;;;;;5014308;28;46291;-71
2023/04/02 12:26:45;;;;;;;;;34.25;29.50;;;;;;;;5014142;28;45407;-72
2023/04/02 12:29:23;;;;;;;;;13.50;13.50;;;;;;;;5014177;28;45479;-72
2023/04/02 12:31:49;;;;;;;;;13.25;12.50;;;;;;;;5014599;28;45363;-72
2023/04/02 12:34:15;;;;;;;;;14.00;13.50;;;;;;;;5013723;28;47182;-72
2023/04/02 12:36:50;;;;;;;;;18.25;15.75;;;;;;;;5016964;28;45411;-72
2023/04/02 12:39:15;;;;;;;;;13.00;12.00;;;;;;;;5017791;28;45253;-72
2023/04/02 12:41:41;;;;;;;;;14.75;14.00;;;;;;;;5017455;28;45427;-72
2023/04/02 12:44:14;;;;;;;;;14.50;13.75;;;;;;;;5017425;28;46336;-71
2023/04/02 12:46:39;;;;;;;;;19.50;16.75;;;;;;;;5017531;28;45388;-72
2023/04/02 12:49:19;;;;;;;;;20.25;17.25;;;;;;;;5017488;28;45378;-72
2023/04/02 12:51:44;;;;;;;;;16.00;16.00;;;;;;;;5017425;28;45386;-72
2023/04/02 12:54:14;;;;;;;;;19.75;16.00;;;;;;;;5017090;28;46284;-72
2023/04/02 12:56:39;;;;;;;;;19.75;16.75;;;;;;;;5017434;28;45369;-72
2023/04/02 12:59:04;;;;;;;;;23.75;21.50;;;;;;;;5017494;28;45362;-72
2023/04/02 13:01:30;;;;;;;;;19.50;15.00;;;;;;;;5017265;28;45472;-72
2023/04/02 13:04:07;;;;;;;;;17.00;17.00;;;;;;;;5017036;28;45586;-72
2023/04/02 13:06:34;;;;;;;;;15.25;13.00;;;;;;;;4999315;28;45404;-72
2023/04/02 13:09:00;;;;;;;;;17.75;13.75;;;;;;;;5017346;28;45388;-72
2023/04/02 13:11:33;;;;;;;;;18.00;14.50;;;;;;;;5017202;28;45395;-72
2023/04/02 13:14:00;;;;;;;;;16.25;13.50;;;;;;;;4999232;28;47990;-72
2023/04/02 13:16:27;;;;;;;;;17.50;17.25;;;;;;;;5017031;28;45424;-72
2023/04/02 13:19:07;;;;;;;;;19.25;14.25;;;;;;;;5016531;28;45478;-71
2023/04/02 13:21:32;;;;;;;;;14.50;13.00;;;;;;;;5016942;28;45517;-71
2023/04/02 13:23:57;;;;;;;;;17.75;15.50;;;;;;;;5016633;28;45423;-73
2023/04/02 13:26:27;;;;;;;;;13.50;12.00;;;;;;;;5017085;28;45474;-72
2023/04/02 13:28:55;;;;;;;;;18.50;14.50;;;;;;;;4998985;28;45392;-72
2023/04/02 13:31:20;;;;;;;;;14.00;13.00;;;;;;;;5016367;28;45320;-73
2023/04/02 13:33:45;;;;;;;;;14.75;10.75;;;;;;;;5016771;28;45351;-71
2023/04/02 13:36:14;;;;;;;;;13.75;13.00;;;;;;;;5016746;28;45361;-71
2023/04/02 13:38:40;;;;;;;;;11.00;10.00;;;;;;;;5016565;28;45329;-72
2023/04/02 13:41:05;;;;;;;;;10.00;8.00;;;;;;;;5016656;28;45366;-72
2023/04/02 13:43:30;;;;;;;;;12.75;9.75;;;;;;;;5016356;28;46230;-72
2023/04/02 13:45:57;;;;;;;;;7.25;7.25;;;;;;;;5016149;28;45353;-72
2023/04/02 13:48:25;;;;;;;;;8.00;8.00;;;;;;;;5016926;28;45337;-72
2023/04/02 13:50:50;;;;;;;;;9.00;7.75;;;;;;;;4999153;28;45564;-72
2023/04/02 13:53:21;;;;;;;;;7.00;7.00;;;;;;;;4998444;28;46587;-72
2023/04/02 13:55:47;;;;;;;;;7.50;7.50;;;;;;;;5016354;28;45409;-72
2023/04/02 13:58:12;;;;;;;;;11.50;8.25;;;;;;;;5016235;28;45712;-72
2023/04/02 14:00:37;;;;;;;;;11.75;9.00;;;;;;;;5016259;28;45517;-72
2023/04/02 14:03:08;;;;;;;;;10.75;10.50;;;;;;;;5016568;28;46643;-72
2023/04/02 14:05:52;;;;;;;;;10.75;9.75;;;;;;;;5015989;28;45336;-72
2023/04/02 14:08:22;;;;;;;;;9.50;9.50;;;;;;;;5016322;28;45357;-72
2023/04/02 14:10:56;;;;;;;;;11.25;7.75;;;;;;;;5016272;28;45474;-72
2023/04/02 14:13:21;;;;;;;;;10.50;9.25;;;;;;;;5016224;28;47543;-72
2023/04/02 14:15:52;;;;;;;;;8.25;8.25;;;;;;;;5015970;28;45331;-72
2023/04/02 14:18:28;;;;;;;;;7.75;7.25;;;;;;;;5016135;28;45348;-71
2023/04/02 14:20:53;;;;;;;;;11.75;10.75;;;;;;;;5016016;28;45435;-71
2023/04/02 14:23:22;;;;;;;;;15.75;14.00;;;;;;;;5015691;28;46700;-72
2023/04/02 14:25:56;;;;;;;;;12.00;7.25;;;;;;;;5016158;28;45389;-72
2023/04/02 14:28:36;;;;;;;;;13.50;11.00;;;;;;;;5015734;28;45375;-71
2023/04/02 14:31:16;;;;;;;;;11.75;11.75;;;;;;;;5015866;28;45265;-72
2023/04/02 14:33:51;;;;;;;;;10.25;10.25;;;;;;;;5015729;28;45803;-72
2023/04/02 14:36:29;;;;;;;;;7.50;4.00;;;;;;;;5015846;28;45423;-72
2023/04/02 14:39:01;;;;;;;;;10.25;9.75;;;;;;;;5015718;28;45265;-72
2023/04/02 14:41:27;;;;;;;;;11.25;8.25;;;;;;;;5015614;28;45415;-72
2023/04/02 14:43:52;;;;;;;;;10.75;10.00;;;;;;;;5015182;28;47038;-73
2023/04/02 14:46:18;;;;;;;;;11.75;11.50;;;;;;;;5015821;28;45308;-72
2023/04/02 14:48:47;;;;;;;;;9.50;9.50;;;;;;;;5015909;28;45294;-72